Weather reports worldwide

Advertisment
Great Dun Fell, United Kingdom (3227): temperature & dewpoint: 19.01.2017 01:00:00 - 25.01.2017 01:00:00 (GMT)Great Dun Fell, United Kingdom (3227): wind speed & gusts: 19.01.2017 01:00:00 - 25.01.2017 01:00:00 (GMT)Great Dun Fell, United Kingdom (3227): wind direction: 19.01.2017 01:00:00 - 25.01.2017 01:00:00 (GMT)
Date & Time tt [°C] td [°C] ff [km/h] ff [kn] fx [km/h] fx [kn] dd
25.01.2017 01:00:00 2,8 - 55 30 65 35 SW
25.01.2017 00:00:00 3,0 - 59 32 72 39 SW
24.01.2017 23:00:00 3,2 - 67 36 78 42 SW
24.01.2017 22:00:00 3,2 - 65 35 78 42 SW
24.01.2017 21:00:00 3,1 - 61 33 68 37 SW
24.01.2017 20:00:00 3,1 - 50 27 61 33 SW
24.01.2017 19:00:00 3,0 - 50 27 63 34 SW
24.01.2017 18:00:00 2,8 - 57 31 65 35 SW
24.01.2017 17:00:00 2,8 - 46 25 57 31 SW
24.01.2017 16:00:00 2,6 - 48 26 61 33 SW
24.01.2017 15:00:00 2,7 - 50 27 61 33 SW
24.01.2017 14:00:00 2,3 - 50 27 59 32 SW
24.01.2017 13:00:00 2,2 - 48 26 59 32 SW
24.01.2017 12:00:00 1,8 - 50 27 63 34 SW
24.01.2017 11:00:00 1,5 - 55 30 65 35 SW
24.01.2017 10:00:00 1,0 0,9 54 29 61 33 SW
24.01.2017 09:00:00 0,5 0,3 54 29 61 33 SW
24.01.2017 08:00:00 0,1 - 52 28 68 37 SW
24.01.2017 07:00:00 0,1 -0,1 59 32 70 38 SW
24.01.2017 06:00:00 -0,3 -0,4 68 37 78 42 SW
24.01.2017 05:00:00 -0,5 -0,8 68 37 80 43 WSW
24.01.2017 04:00:00 -0,6 -0,9 72 39 78 42 SW
24.01.2017 03:00:00 -0,4 -1,0 59 32 68 37 SW
24.01.2017 02:00:00 -0,1 - 50 27 63 34 SW
24.01.2017 01:00:00 0,0 - 55 30 70 38 SW
24.01.2017 00:00:00 0,1 - 55 30 74 40 SW
23.01.2017 23:00:00 0,1 - 61 33 74 40 WSW
23.01.2017 22:00:00 0,1 - 54 29 65 35 SW
23.01.2017 21:00:00 0,1 - 50 27 55 30 SW
23.01.2017 20:00:00 0,1 0,1 46 25 54 29 SW
23.01.2017 19:00:00 0,0 -0,3 44 24 52 28 WSW
23.01.2017 18:00:00 -0,2 -0,4 41 22 46 25 SW
23.01.2017 17:00:00 -0,2 -0,4 29 16 - - SW
23.01.2017 16:00:00 -0,4 -0,7 37 20 - - WSW
23.01.2017 15:00:00 -2,0 -2,4 34 18 - - SW
23.01.2017 14:00:00 -1,6 -2,1 28 15 - - SW
23.01.2017 13:00:00 -1,1 -1,7 24 13 - - WSW
23.01.2017 12:00:00 -1,8 -2,3 24 13 - - W
23.01.2017 11:00:00 -2,3 -2,7 31 17 - - WSW
23.01.2017 10:00:00 -2,6 -2,9 34 18 - - WSW
23.01.2017 09:00:00 -3,1 -3,3 26 14 - - W
23.01.2017 08:00:00 -3,2 -3,4 28 15 - - W
23.01.2017 07:00:00 -3,2 -3,4 22 12 - - W
23.01.2017 06:00:00 -2,7 -2,9 18 10 - - W
23.01.2017 05:00:00 -2,5 -2,6 11 6 - - W
23.01.2017 04:00:00 -2,6 -2,7 13 7 - - W
23.01.2017 03:00:00 -2,9 -3,3 11 6 - - WNW
23.01.2017 02:00:00 -3,1 -3,5 13 7 - - W
23.01.2017 01:00:00 -2,7 -2,9 11 6 - - W
23.01.2017 00:00:00 -2,5 -2,6 11 6 - - W
22.01.2017 23:00:00 -2,5 -2,6 8 4 - - W
22.01.2017 22:00:00 -2,6 -2,7 13 7 - - WNW
22.01.2017 21:00:00 -3,1 -3,3 8 4 - - WSW
22.01.2017 20:00:00 -3,1 -3,2 11 6 - - WSW
22.01.2017 19:00:00 -3,1 -3,2 22 12 - - WSW
22.01.2017 18:00:00 -2,9 -2,9 18 10 - - WSW
22.01.2017 17:00:00 -2,8 -2,9 22 12 - - WSW
22.01.2017 16:00:00 -3,0 -3,0 18 10 - - WSW
22.01.2017 15:00:00 -3,3 -3,4 15 8 - - W
22.01.2017 14:00:00 -4,1 -4,3 18 10 - - WSW
22.01.2017 13:00:00 -4,5 -4,6 15 8 - - SW
22.01.2017 12:00:00 -4,8 -5,0 18 10 - - SW
22.01.2017 11:00:00 -4,9 -5,1 21 11 - - SW
22.01.2017 10:00:00 -5,0 -5,1 21 11 - - SW
22.01.2017 09:00:00 -4,6 -4,8 22 12 - - SW
22.01.2017 08:00:00 -4,2 -4,3 24 13 - - SSW
22.01.2017 07:00:00 -4,2 -4,5 22 12 - - SSW
22.01.2017 06:00:00 -4,3 -4,6 31 17 - - SSW
22.01.2017 05:00:00 -3,8 -3,9 18 10 - - S
22.01.2017 04:00:00 -3,1 -3,2 22 12 - - S
22.01.2017 03:00:00 -3,0 -3,2 22 12 - - S
22.01.2017 02:00:00 -2,2 -2,2 21 11 - - S
22.01.2017 01:00:00 -2,0 -2,0 22 12 - - SSE
22.01.2017 00:00:00 -1,8 -1,8 18 10 - - S
21.01.2017 23:00:00 -1,8 -1,8 18 10 - - SSE
21.01.2017 22:00:00 -1,8 -1,9 31 17 - - SSE
21.01.2017 21:00:00 -1,6 -1,6 21 11 - - SE
21.01.2017 20:00:00 -1,6 - 26 14 - - ESE
21.01.2017 19:00:00 -1,5 - 22 12 - - ESE
21.01.2017 18:00:00 -1,3 - 18 10 - - SSE
21.01.2017 17:00:00 -1,3 - 22 12 - - SE
21.01.2017 16:00:00 -1,4 - 21 11 - - SE
21.01.2017 15:00:00 -1,4 - 22 12 - - E
21.01.2017 14:00:00 -1,7 - 18 10 - - E
21.01.2017 13:00:00 -1,1 - 15 8 - - E
21.01.2017 12:00:00 1,8 - 16 9 - - SE
21.01.2017 11:00:00 1,1 - 18 10 - - SSE
21.01.2017 10:00:00 1,5 - 24 13 - - SSE
21.01.2017 09:00:00 1,2 - 29 16 - - S
21.01.2017 08:00:00 0,9 - 26 14 - - S
21.01.2017 07:00:00 1,0 - 28 15 - - S
21.01.2017 06:00:00 1,1 - 29 16 - - S
21.01.2017 05:00:00 1,3 - 31 17 - - S
21.01.2017 04:00:00 1,5 - 35 19 - - S
21.01.2017 03:00:00 1,7 - 34 18 - - S
21.01.2017 02:00:00 2,1 - 35 19 - - S
21.01.2017 01:00:00 2,3 - 39 21 - - SSW
21.01.2017 00:00:00 2,2 - 34 18 - - SSW
20.01.2017 23:00:00 1,5 - 29 16 - - SSW
20.01.2017 22:00:00 1,3 - 26 14 - - SSW
20.01.2017 21:00:00 1,3 - 28 15 - - SSW
20.01.2017 20:00:00 1,7 - 21 11 - - SSW
20.01.2017 19:00:00 2,1 - 22 12 - - SSW
20.01.2017 18:00:00 2,2 - 22 12 - - SW
20.01.2017 17:00:00 1,6 - 24 13 - - SW
20.01.2017 16:00:00 0,6 - 21 11 - - SW
20.01.2017 15:00:00 0,1 - 22 12 - - SW
20.01.2017 14:00:00 0,1 - 28 15 - - SW
20.01.2017 13:00:00 -0,9 - 28 15 - - SW
20.01.2017 12:00:00 -0,7 - 24 13 - - SW
20.01.2017 11:00:00 -0,8 - 21 11 - - SW
20.01.2017 10:00:00 -0,8 - 15 8 - - SSW
20.01.2017 09:00:00 6,3 - 16 9 - - SE
20.01.2017 08:00:00 5,1 - 11 6 - - ESE
20.01.2017 07:00:00 0,8 - 5 3 - - SSW
20.01.2017 06:00:00 -0,5 - 5 3 - - WSW
20.01.2017 05:00:00 2,3 - 4 2 - - NNE
20.01.2017 04:00:00 6,5 - 11 6 - - NNE
20.01.2017 03:00:00 -0,1 - 9 5 - - WSW
20.01.2017 02:00:00 -0,3 - 11 6 - - WSW
20.01.2017 01:00:00 1,2 - 9 5 - - WNW
20.01.2017 00:00:00 0,1 - 11 6 - - W
19.01.2017 23:00:00 3,6 - 9 5 - - WNW
19.01.2017 22:00:00 0,0 - 9 5 - - W
19.01.2017 21:00:00 0,4 - 11 6 - - W
19.01.2017 20:00:00 0,5 - 8 4 - - W
19.01.2017 19:00:00 0,7 - 15 8 - - WNW
19.01.2017 18:00:00 0,9 - 18 10 - - W
19.01.2017 17:00:00 1,1 - 22 12 - - W
19.01.2017 16:00:00 1,1 - 24 13 - - W
19.01.2017 15:00:00 1,1 - 28 15 - - W
19.01.2017 14:00:00 1,4 - 28 15 - - W
19.01.2017 13:00:00 1,3 - 28 15 - - W
19.01.2017 12:00:00 1,4 - 37 20 46 25 W
19.01.2017 11:00:00 1,8 - 37 20 46 25 W
19.01.2017 10:00:00 1,8 - 39 21 46 25 W
19.01.2017 09:00:00 1,5 - 41 22 52 28 W
19.01.2017 08:00:00 1,3 - 44 24 55 30 W
19.01.2017 07:00:00 1,4 - 48 26 61 33 W
19.01.2017 06:00:00 1,2 - 50 27 57 31 W
19.01.2017 05:00:00 1,5 - 46 25 54 29 W
19.01.2017 04:00:00 1,4 - 46 25 54 29 W
19.01.2017 03:00:00 1,3 - 48 26 55 30 W
19.01.2017 02:00:00 1,3 - 44 24 50 27 W
19.01.2017 01:00:00 1,2 - 44 24 54 29 W

tt = temperature
td = dewpoint
ff = wind speed
fx = gusts
dd = wind direction

Next stations